sensor_id;sensor_type;location;lat;lon;timestamp;P1;durP1;ratioP1;P2;durP2;ratioP2
55364;SDS011;41245;45.384;20.390;2024-01-30T00:01:42;94.78;;;38.50;;
55364;SDS011;41245;45.384;20.390;2024-01-30T00:04:08;102.75;;;40.35;;
55364;SDS011;41245;45.384;20.390;2024-01-30T00:06:33;96.22;;;37.28;;
55364;SDS011;41245;45.384;20.390;2024-01-30T00:08:59;85.35;;;36.92;;
55364;SDS011;41245;45.384;20.390;2024-01-30T00:11:25;103.18;;;38.92;;
55364;SDS011;41245;45.384;20.390;2024-01-30T00:13:53;86.13;;;39.70;;
55364;SDS011;41245;45.384;20.390;2024-01-30T00:16:22;96.57;;;41.50;;
55364;SDS011;41245;45.384;20.390;2024-01-30T00:18:49;87.65;;;36.70;;
55364;SDS011;41245;45.384;20.390;2024-01-30T00:21:16;91.90;;;36.58;;
55364;SDS011;41245;45.384;20.390;2024-01-30T00:23:42;82.05;;;34.15;;
55364;SDS011;41245;45.384;20.390;2024-01-30T00:26:07;87.15;;;37.95;;
55364;SDS011;41245;45.384;20.390;2024-01-30T00:28:33;92.90;;;38.28;;
55364;SDS011;41245;45.384;20.390;2024-01-30T00:30:59;100.20;;;39.25;;
55364;SDS011;41245;45.384;20.390;2024-01-30T00:33:24;79.88;;;37.58;;
55364;SDS011;41245;45.384;20.390;2024-01-30T00:35:50;90.90;;;39.03;;
55364;SDS011;41245;45.384;20.390;2024-01-30T00:38:16;93.53;;;38.92;;
55364;SDS011;41245;45.384;20.390;2024-01-30T00:40:42;87.10;;;38.92;;
55364;SDS011;41245;45.384;20.390;2024-01-30T00:43:08;92.97;;;41.40;;
55364;SDS011;41245;45.384;20.390;2024-01-30T00:45:34;84.22;;;39.75;;
55364;SDS011;41245;45.384;20.390;2024-01-30T00:47:59;92.22;;;41.70;;
55364;SDS011;41245;45.384;20.390;2024-01-30T00:50:25;87.93;;;40.60;;
55364;SDS011;41245;45.384;20.390;2024-01-30T00:52:51;103.80;;;42.10;;
55364;SDS011;41245;45.384;20.390;2024-01-30T00:55:17;90.35;;;41.08;;
55364;SDS011;41245;45.384;20.390;2024-01-30T00:57:42;110.03;;;44.38;;
55364;SDS011;41245;45.384;20.390;2024-01-30T01:00:08;93.15;;;44.25;;
55364;SDS011;41245;45.384;20.390;2024-01-30T01:02:35;109.03;;;45.40;;
55364;SDS011;41245;45.384;20.390;2024-01-30T01:05:00;99.88;;;45.90;;
55364;SDS011;41245;45.384;20.390;2024-01-30T01:07:27;109.47;;;46.50;;
55364;SDS011;41245;45.384;20.390;2024-01-30T01:09:52;114.13;;;47.97;;
55364;SDS011;41245;45.384;20.390;2024-01-30T01:12:18;91.53;;;44.65;;
55364;SDS011;41245;45.384;20.390;2024-01-30T01:14:44;106.38;;;41.47;;
55364;SDS011;41245;45.384;20.390;2024-01-30T01:17:10;108.60;;;43.88;;
55364;SDS011;41245;45.384;20.390;2024-01-30T01:19:36;99.30;;;44.15;;
55364;SDS011;41245;45.384;20.390;2024-01-30T01:22:01;109.55;;;43.42;;
55364;SDS011;41245;45.384;20.390;2024-01-30T01:24:28;112.05;;;44.63;;
55364;SDS011;41245;45.384;20.390;2024-01-30T01:26:55;96.63;;;44.05;;
55364;SDS011;41245;45.384;20.390;2024-01-30T01:29:22;93.00;;;42.78;;
55364;SDS011;41245;45.384;20.390;2024-01-30T01:31:53;98.13;;;42.97;;
55364;SDS011;41245;45.384;20.390;2024-01-30T01:34:22;108.65;;;45.42;;
55364;SDS011;41245;45.384;20.390;2024-01-30T01:36:51;94.47;;;40.65;;
55364;SDS011;41245;45.384;20.390;2024-01-30T01:39:17;89.63;;;37.55;;
55364;SDS011;41245;45.384;20.390;2024-01-30T01:41:43;93.55;;;37.63;;
55364;SDS011;41245;45.384;20.390;2024-01-30T01:44:09;75.90;;;34.45;;
55364;SDS011;41245;45.384;20.390;2024-01-30T01:46:35;72.30;;;33.40;;
55364;SDS011;41245;45.384;20.390;2024-01-30T01:49:02;71.13;;;29.40;;
55364;SDS011;41245;45.384;20.390;2024-01-30T01:51:29;63.90;;;28.83;;
55364;SDS011;41245;45.384;20.390;2024-01-30T01:53:57;63.78;;;28.63;;
55364;SDS011;41245;45.384;20.390;2024-01-30T01:56:25;59.75;;;27.67;;
55364;SDS011;41245;45.384;20.390;2024-01-30T01:58:54;64.13;;;26.27;;
55364;SDS011;41245;45.384;20.390;2024-01-30T02:01:21;64.38;;;26.60;;
55364;SDS011;41245;45.384;20.390;2024-01-30T02:03:48;60.42;;;27.13;;
55364;SDS011;41245;45.384;20.390;2024-01-30T02:06:14;59.03;;;25.95;;
55364;SDS011;41245;45.384;20.390;2024-01-30T02:08:41;61.30;;;25.85;;
55364;SDS011;41245;45.384;20.390;2024-01-30T02:11:07;57.97;;;26.10;;
55364;SDS011;41245;45.384;20.390;2024-01-30T02:13:35;61.88;;;26.63;;
55364;SDS011;41245;45.384;20.390;2024-01-30T02:16:01;60.35;;;24.77;;
55364;SDS011;41245;45.384;20.390;2024-01-30T02:18:27;62.65;;;26.50;;
55364;SDS011;41245;45.384;20.390;2024-01-30T02:20:53;67.55;;;28.40;;
55364;SDS011;41245;45.384;20.390;2024-01-30T02:23:21;59.92;;;25.90;;
55364;SDS011;41245;45.384;20.390;2024-01-30T02:25:52;50.78;;;24.33;;
55364;SDS011;41245;45.384;20.390;2024-01-30T02:28:19;54.35;;;26.27;;
55364;SDS011;41245;45.384;20.390;2024-01-30T02:30:45;51.80;;;23.40;;
55364;SDS011;41245;45.384;20.390;2024-01-30T02:33:11;50.95;;;22.70;;
55364;SDS011;41245;45.384;20.390;2024-01-30T02:35:37;54.22;;;22.58;;
55364;SDS011;41245;45.384;20.390;2024-01-30T02:38:04;49.92;;;21.88;;
55364;SDS011;41245;45.384;20.390;2024-01-30T02:40:30;51.28;;;23.10;;
55364;SDS011;41245;45.384;20.390;2024-01-30T02:42:56;63.13;;;24.77;;
55364;SDS011;41245;45.384;20.390;2024-01-30T02:45:24;55.22;;;24.55;;
55364;SDS011;41245;45.384;20.390;2024-01-30T02:47:50;57.95;;;24.65;;
55364;SDS011;41245;45.384;20.390;2024-01-30T02:50:17;56.45;;;23.92;;
55364;SDS011;41245;45.384;20.390;2024-01-30T02:52:42;61.20;;;25.00;;
55364;SDS011;41245;45.384;20.390;2024-01-30T02:55:11;73.03;;;25.77;;
55364;SDS011;41245;45.384;20.390;2024-01-30T02:57:37;102.78;;;31.85;;
55364;SDS011;41245;45.384;20.390;2024-01-30T03:00:03;79.88;;;30.67;;
55364;SDS011;41245;45.384;20.390;2024-01-30T03:02:31;67.65;;;24.95;;
55364;SDS011;41245;45.384;20.390;2024-01-30T03:04:58;63.70;;;26.42;;
55364;SDS011;41245;45.384;20.390;2024-01-30T03:07:24;68.88;;;27.67;;
55364;SDS011;41245;45.384;20.390;2024-01-30T03:09:50;60.38;;;24.42;;
55364;SDS011;41245;45.384;20.390;2024-01-30T03:12:16;57.05;;;24.25;;
55364;SDS011;41245;45.384;20.390;2024-01-30T03:14:42;62.35;;;24.48;;
55364;SDS011;41245;45.384;20.390;2024-01-30T03:17:08;61.70;;;24.58;;
55364;SDS011;41245;45.384;20.390;2024-01-30T03:19:33;50.35;;;23.83;;
55364;SDS011;41245;45.384;20.390;2024-01-30T03:21:59;56.67;;;23.08;;
55364;SDS011;41245;45.384;20.390;2024-01-30T03:24:25;63.72;;;23.10;;
55364;SDS011;41245;45.384;20.390;2024-01-30T03:26:51;57.20;;;22.75;;
55364;SDS011;41245;45.384;20.390;2024-01-30T03:29:16;55.83;;;23.38;;
55364;SDS011;41245;45.384;20.390;2024-01-30T03:31:42;45.60;;;20.50;;
55364;SDS011;41245;45.384;20.390;2024-01-30T03:34:08;66.60;;;23.02;;
55364;SDS011;41245;45.384;20.390;2024-01-30T03:36:34;50.45;;;21.70;;
55364;SDS011;41245;45.384;20.390;2024-01-30T03:39:00;52.15;;;21.13;;
55364;SDS011;41245;45.384;20.390;2024-01-30T03:41:26;47.40;;;21.15;;
55364;SDS011;41245;45.384;20.390;2024-01-30T03:43:52;43.45;;;20.17;;
55364;SDS011;41245;45.384;20.390;2024-01-30T03:46:18;48.78;;;22.15;;
55364;SDS011;41245;45.384;20.390;2024-01-30T03:48:44;52.17;;;21.77;;
55364;SDS011;41245;45.384;20.390;2024-01-30T03:51:10;45.65;;;20.63;;
55364;SDS011;41245;45.384;20.390;2024-01-30T03:53:41;47.40;;;20.73;;
55364;SDS011;41245;45.384;20.390;2024-01-30T03:56:07;39.95;;;18.65;;
55364;SDS011;41245;45.384;20.390;2024-01-30T03:58:33;40.33;;;19.55;;
55364;SDS011;41245;45.384;20.390;2024-01-30T04:00:59;43.92;;;20.73;;
55364;SDS011;41245;45.384;20.390;2024-01-30T04:03:25;45.78;;;19.85;;
55364;SDS011;41245;45.384;20.390;2024-01-30T04:05:54;47.85;;;19.17;;
55364;SDS011;41245;45.384;20.390;2024-01-30T04:08:19;45.50;;;20.77;;
55364;SDS011;41245;45.384;20.390;2024-01-30T04:10:46;47.85;;;19.60;;
55364;SDS011;41245;45.384;20.390;2024-01-30T04:13:12;43.97;;;21.15;;
55364;SDS011;41245;45.384;20.390;2024-01-30T04:15:38;44.28;;;20.48;;
55364;SDS011;41245;45.384;20.390;2024-01-30T04:18:04;51.90;;;22.15;;
55364;SDS011;41245;45.384;20.390;2024-01-30T04:20:30;50.13;;;19.95;;
55364;SDS011;41245;45.384;20.390;2024-01-30T04:22:56;41.15;;;20.15;;
55364;SDS011;41245;45.384;20.390;2024-01-30T04:25:22;47.75;;;20.55;;
55364;SDS011;41245;45.384;20.390;2024-01-30T04:27:47;57.20;;;24.90;;
55364;SDS011;41245;45.384;20.390;2024-01-30T04:30:13;49.35;;;21.80;;
55364;SDS011;41245;45.384;20.390;2024-01-30T04:32:39;54.55;;;22.98;;
55364;SDS011;41245;45.384;20.390;2024-01-30T04:35:05;50.55;;;20.63;;
55364;SDS011;41245;45.384;20.390;2024-01-30T04:37:30;52.25;;;20.25;;
55364;SDS011;41245;45.384;20.390;2024-01-30T04:39:56;45.63;;;19.60;;
55364;SDS011;41245;45.384;20.390;2024-01-30T04:42:22;48.15;;;21.10;;
55364;SDS011;41245;45.384;20.390;2024-01-30T04:44:48;44.92;;;19.27;;
55364;SDS011;41245;45.384;20.390;2024-01-30T04:47:14;41.88;;;19.30;;
55364;SDS011;41245;45.384;20.390;2024-01-30T04:49:40;44.47;;;19.15;;
55364;SDS011;41245;45.384;20.390;2024-01-30T04:52:08;37.90;;;18.80;;
55364;SDS011;41245;45.384;20.390;2024-01-30T04:54:35;41.23;;;19.57;;
55364;SDS011;41245;45.384;20.390;2024-01-30T04:57:04;40.53;;;18.70;;
55364;SDS011;41245;45.384;20.390;2024-01-30T04:59:33;41.50;;;20.08;;
55364;SDS011;41245;45.384;20.390;2024-01-30T05:01:59;44.25;;;20.45;;
55364;SDS011;41245;45.384;20.390;2024-01-30T05:04:25;40.35;;;20.10;;
55364;SDS011;41245;45.384;20.390;2024-01-30T05:06:50;55.72;;;21.95;;
55364;SDS011;41245;45.384;20.390;2024-01-30T05:09:16;45.97;;;20.75;;
55364;SDS011;41245;45.384;20.390;2024-01-30T05:11:42;52.72;;;24.35;;
55364;SDS011;41245;45.384;20.390;2024-01-30T05:14:07;51.53;;;22.67;;
55364;SDS011;41245;45.384;20.390;2024-01-30T05:16:37;49.08;;;22.45;;
55364;SDS011;41245;45.384;20.390;2024-01-30T05:19:02;44.22;;;21.90;;
55364;SDS011;41245;45.384;20.390;2024-01-30T05:21:28;54.00;;;23.48;;
55364;SDS011;41245;45.384;20.390;2024-01-30T05:23:54;51.50;;;24.50;;
55364;SDS011;41245;45.384;20.390;2024-01-30T05:26:19;60.15;;;27.38;;
55364;SDS011;41245;45.384;20.390;2024-01-30T05:28:45;60.17;;;25.27;;
55364;SDS011;41245;45.384;20.390;2024-01-30T05:31:11;55.15;;;24.35;;
55364;SDS011;41245;45.384;20.390;2024-01-30T05:33:37;57.20;;;26.05;;
55364;SDS011;41245;45.384;20.390;2024-01-30T05:36:03;54.58;;;26.27;;
55364;SDS011;41245;45.384;20.390;2024-01-30T05:38:29;58.78;;;25.58;;
55364;SDS011;41245;45.384;20.390;2024-01-30T05:40:55;59.47;;;27.10;;
55364;SDS011;41245;45.384;20.390;2024-01-30T05:43:23;53.53;;;25.55;;
55364;SDS011;41245;45.384;20.390;2024-01-30T05:45:49;57.85;;;25.48;;
55364;SDS011;41245;45.384;20.390;2024-01-30T05:48:15;49.83;;;22.58;;
55364;SDS011;41245;45.384;20.390;2024-01-30T05:50:41;53.78;;;24.33;;
55364;SDS011;41245;45.384;20.390;2024-01-30T05:53:07;57.00;;;25.65;;
55364;SDS011;41245;45.384;20.390;2024-01-30T05:55:33;60.00;;;24.38;;
55364;SDS011;41245;45.384;20.390;2024-01-30T05:57:58;64.20;;;26.40;;
55364;SDS011;41245;45.384;20.390;2024-01-30T06:00:24;54.72;;;24.20;;
55364;SDS011;41245;45.384;20.390;2024-01-30T06:02:50;56.83;;;25.33;;
55364;SDS011;41245;45.384;20.390;2024-01-30T06:05:15;54.03;;;25.48;;
55364;SDS011;41245;45.384;20.390;2024-01-30T06:07:41;68.85;;;28.27;;
55364;SDS011;41245;45.384;20.390;2024-01-30T06:10:07;65.70;;;28.40;;
55364;SDS011;41245;45.384;20.390;2024-01-30T06:12:34;62.95;;;27.15;;
55364;SDS011;41245;45.384;20.390;2024-01-30T06:15:00;56.53;;;27.70;;
55364;SDS011;41245;45.384;20.390;2024-01-30T06:17:26;71.22;;;30.13;;
55364;SDS011;41245;45.384;20.390;2024-01-30T06:19:52;59.80;;;28.33;;
55364;SDS011;41245;45.384;20.390;2024-01-30T06:22:17;72.20;;;30.88;;
55364;SDS011;41245;45.384;20.390;2024-01-30T06:24:43;80.93;;;29.83;;
55364;SDS011;41245;45.384;20.390;2024-01-30T06:27:13;81.07;;;30.75;;
55364;SDS011;41245;45.384;20.390;2024-01-30T06:29:40;84.53;;;32.45;;
55364;SDS011;41245;45.384;20.390;2024-01-30T06:32:07;81.10;;;30.60;;
55364;SDS011;41245;45.384;20.390;2024-01-30T06:34:33;87.82;;;32.95;;
55364;SDS011;41245;45.384;20.390;2024-01-30T06:36:59;85.63;;;32.97;;
55364;SDS011;41245;45.384;20.390;2024-01-30T06:39:25;89.57;;;32.67;;
55364;SDS011;41245;45.384;20.390;2024-01-30T06:41:51;88.43;;;36.60;;
55364;SDS011;41245;45.384;20.390;2024-01-30T06:44:17;88.13;;;32.65;;
55364;SDS011;41245;45.384;20.390;2024-01-30T06:46:43;86.05;;;32.70;;
55364;SDS011;41245;45.384;20.390;2024-01-30T06:49:08;80.35;;;30.55;;
55364;SDS011;41245;45.384;20.390;2024-01-30T06:51:34;82.72;;;31.50;;
55364;SDS011;41245;45.384;20.390;2024-01-30T06:54:00;75.50;;;30.80;;
55364;SDS011;41245;45.384;20.390;2024-01-30T06:56:25;81.15;;;33.38;;
55364;SDS011;41245;45.384;20.390;2024-01-30T06:58:51;78.10;;;34.30;;
55364;SDS011;41245;45.384;20.390;2024-01-30T07:01:17;87.80;;;32.65;;
55364;SDS011;41245;45.384;20.390;2024-01-30T07:03:43;65.30;;;30.23;;
55364;SDS011;41245;45.384;20.390;2024-01-30T07:06:09;69.63;;;29.48;;
55364;SDS011;41245;45.384;20.390;2024-01-30T07:08:37;79.32;;;30.33;;
55364;SDS011;41245;45.384;20.390;2024-01-30T07:11:06;95.35;;;31.27;;
55364;SDS011;41245;45.384;20.390;2024-01-30T07:13:33;66.68;;;29.08;;
55364;SDS011;41245;45.384;20.390;2024-01-30T07:16:00;95.85;;;33.47;;
55364;SDS011;41245;45.384;20.390;2024-01-30T07:18:26;112.28;;;36.88;;
55364;SDS011;41245;45.384;20.390;2024-01-30T07:20:51;69.03;;;27.70;;
55364;SDS011;41245;45.384;20.390;2024-01-30T07:23:17;63.05;;;24.90;;
55364;SDS011;41245;45.384;20.390;2024-01-30T07:25:46;51.00;;;22.77;;
55364;SDS011;41245;45.384;20.390;2024-01-30T07:28:15;50.42;;;23.23;;
55364;SDS011;41245;45.384;20.390;2024-01-30T07:30:43;54.97;;;23.10;;
55364;SDS011;41245;45.384;20.390;2024-01-30T07:33:09;51.45;;;21.48;;
55364;SDS011;41245;45.384;20.390;2024-01-30T07:35:35;37.60;;;20.80;;
55364;SDS011;41245;45.384;20.390;2024-01-30T07:38:01;43.78;;;19.42;;
55364;SDS011;41245;45.384;20.390;2024-01-30T07:40:27;39.88;;;18.15;;
55364;SDS011;41245;45.384;20.390;2024-01-30T07:42:53;45.80;;;19.23;;
55364;SDS011;41245;45.384;20.390;2024-01-30T07:45:19;38.67;;;17.80;;
55364;SDS011;41245;45.384;20.390;2024-01-30T07:47:49;44.42;;;18.60;;
55364;SDS011;41245;45.384;20.390;2024-01-30T07:50:16;38.58;;;18.35;;
55364;SDS011;41245;45.384;20.390;2024-01-30T07:52:42;43.75;;;18.38;;
55364;SDS011;41245;45.384;20.390;2024-01-30T07:55:08;38.08;;;17.08;;
55364;SDS011;41245;45.384;20.390;2024-01-30T07:57:34;34.75;;;15.45;;
55364;SDS011;41245;45.384;20.390;2024-01-30T08:00:00;33.97;;;15.50;;
55364;SDS011;41245;45.384;20.390;2024-01-30T08:02:27;33.60;;;15.63;;
55364;SDS011;41245;45.384;20.390;2024-01-30T08:04:52;35.97;;;16.90;;
55364;SDS011;41245;45.384;20.390;2024-01-30T08:07:18;34.22;;;15.32;;
55364;SDS011;41245;45.384;20.390;2024-01-30T08:09:44;30.30;;;15.48;;
55364;SDS011;41245;45.384;20.390;2024-01-30T08:12:10;34.55;;;15.82;;
55364;SDS011;41245;45.384;20.390;2024-01-30T08:14:36;37.13;;;17.83;;
55364;SDS011;41245;45.384;20.390;2024-01-30T08:17:02;40.33;;;20.50;;
55364;SDS011;41245;45.384;20.390;2024-01-30T08:19:28;39.42;;;20.15;;
55364;SDS011;41245;45.384;20.390;2024-01-30T08:21:53;31.50;;;18.52;;
55364;SDS011;41245;45.384;20.390;2024-01-30T08:24:20;40.35;;;17.20;;
55364;SDS011;41245;45.384;20.390;2024-01-30T08:26:46;40.00;;;17.10;;
55364;SDS011;41245;45.384;20.390;2024-01-30T08:29:12;42.33;;;16.98;;
55364;SDS011;41245;45.384;20.390;2024-01-30T08:31:37;42.95;;;16.50;;
55364;SDS011;41245;45.384;20.390;2024-01-30T08:34:03;39.58;;;16.25;;
55364;SDS011;41245;45.384;20.390;2024-01-30T08:36:29;33.22;;;15.68;;
55364;SDS011;41245;45.384;20.390;2024-01-30T08:38:55;33.10;;;17.08;;
55364;SDS011;41245;45.384;20.390;2024-01-30T08:41:20;35.42;;;15.73;;
55364;SDS011;41245;45.384;20.390;2024-01-30T08:43:46;28.73;;;16.15;;
55364;SDS011;41245;45.384;20.390;2024-01-30T08:46:12;40.47;;;16.25;;
55364;SDS011;41245;45.384;20.390;2024-01-30T08:48:38;33.88;;;15.43;;
55364;SDS011;41245;45.384;20.390;2024-01-30T08:51:03;33.67;;;14.82;;
55364;SDS011;41245;45.384;20.390;2024-01-30T08:53:33;35.78;;;16.63;;
55364;SDS011;41245;45.384;20.390;2024-01-30T08:56:00;32.22;;;14.88;;
55364;SDS011;41245;45.384;20.390;2024-01-30T08:58:26;29.75;;;12.77;;
55364;SDS011;41245;45.384;20.390;2024-01-30T09:00:52;24.90;;;11.98;;
55364;SDS011;41245;45.384;20.390;2024-01-30T09:03:17;24.35;;;12.02;;
55364;SDS011;41245;45.384;20.390;2024-01-30T09:05:44;31.05;;;13.23;;
55364;SDS011;41245;45.384;20.390;2024-01-30T09:08:10;25.95;;;11.70;;
55364;SDS011;41245;45.384;20.390;2024-01-30T09:10:35;39.45;;;14.57;;
55364;SDS011;41245;45.384;20.390;2024-01-30T09:13:02;30.42;;;12.80;;
55364;SDS011;41245;45.384;20.390;2024-01-30T09:15:28;27.65;;;13.07;;
55364;SDS011;41245;45.384;20.390;2024-01-30T09:17:53;24.30;;;11.95;;
55364;SDS011;41245;45.384;20.390;2024-01-30T09:20:19;23.98;;;12.07;;
55364;SDS011;41245;45.384;20.390;2024-01-30T09:22:47;26.88;;;12.27;;
55364;SDS011;41245;45.384;20.390;2024-01-30T09:25:14;27.65;;;13.32;;
55364;SDS011;41245;45.384;20.390;2024-01-30T09:27:39;29.73;;;13.32;;
55364;SDS011;41245;45.384;20.390;2024-01-30T09:30:05;32.47;;;14.50;;
55364;SDS011;41245;45.384;20.390;2024-01-30T09:32:32;28.08;;;13.85;;
55364;SDS011;41245;45.384;20.390;2024-01-30T09:34:58;23.42;;;11.85;;
55364;SDS011;41245;45.384;20.390;2024-01-30T09:37:24;25.98;;;13.13;;
55364;SDS011;41245;45.384;20.390;2024-01-30T09:39:49;23.15;;;12.98;;
55364;SDS011;41245;45.384;20.390;2024-01-30T09:44:56;26.23;;;12.63;;
55364;SDS011;41245;45.384;20.390;2024-01-30T09:47:22;27.83;;;11.48;;
55364;SDS011;41245;45.384;20.390;2024-01-30T09:49:48;25.83;;;10.63;;
55364;SDS011;41245;45.384;20.390;2024-01-30T09:52:14;20.85;;;9.00;;
55364;SDS011;41245;45.384;20.390;2024-01-30T09:54:41;31.50;;;11.45;;
55364;SDS011;41245;45.384;20.390;2024-01-30T09:57:08;22.52;;;10.73;;
55364;SDS011;41245;45.384;20.390;2024-01-30T09:59:34;20.38;;;11.70;;
55364;SDS011;41245;45.384;20.390;2024-01-30T10:02:00;82.53;;;30.77;;
55364;SDS011;41245;45.384;20.390;2024-01-30T10:04:26;47.88;;;21.67;;
55364;SDS011;41245;45.384;20.390;2024-01-30T10:06:51;26.27;;;12.13;;
55364;SDS011;41245;45.384;20.390;2024-01-30T10:09:17;18.67;;;10.60;;
55364;SDS011;41245;45.384;20.390;2024-01-30T10:11:43;17.73;;;8.68;;
55364;SDS011;41245;45.384;20.390;2024-01-30T10:14:09;22.50;;;10.18;;
55364;SDS011;41245;45.384;20.390;2024-01-30T10:16:35;25.75;;;9.38;;
55364;SDS011;41245;45.384;20.390;2024-01-30T10:19:00;51.60;;;16.02;;
55364;SDS011;41245;45.384;20.390;2024-01-30T10:21:27;18.38;;;9.43;;
55364;SDS011;41245;45.384;20.390;2024-01-30T10:23:54;21.90;;;9.50;;
55364;SDS011;41245;45.384;20.390;2024-01-30T10:26:20;20.02;;;8.70;;
55364;SDS011;41245;45.384;20.390;2024-01-30T10:28:47;19.23;;;10.30;;
55364;SDS011;41245;45.384;20.390;2024-01-30T10:31:17;13.65;;;7.30;;
55364;SDS011;41245;45.384;20.390;2024-01-30T10:33:46;15.15;;;8.55;;
55364;SDS011;41245;45.384;20.390;2024-01-30T10:36:13;16.30;;;7.05;;
55364;SDS011;41245;45.384;20.390;2024-01-30T10:38:42;18.42;;;7.93;;
55364;SDS011;41245;45.384;20.390;2024-01-30T10:41:11;20.85;;;8.60;;
55364;SDS011;41245;45.384;20.390;2024-01-30T10:43:40;22.67;;;10.25;;
55364;SDS011;41245;45.384;20.390;2024-01-30T10:46:10;15.80;;;8.13;;
55364;SDS011;41245;45.384;20.390;2024-01-30T10:51:19;16.70;;;7.15;;
55364;SDS011;41245;45.384;20.390;2024-01-30T10:53:47;13.70;;;7.78;;
55364;SDS011;41245;45.384;20.390;2024-01-30T10:56:14;11.02;;;6.20;;
55364;SDS011;41245;45.384;20.390;2024-01-30T10:58:41;12.07;;;6.50;;
55364;SDS011;41245;45.384;20.390;2024-01-30T11:01:07;15.68;;;6.60;;
55364;SDS011;41245;45.384;20.390;2024-01-30T11:03:34;15.77;;;7.38;;
55364;SDS011;41245;45.384;20.390;2024-01-30T11:06:02;11.00;;;6.18;;
55364;SDS011;41245;45.384;20.390;2024-01-30T11:08:28;12.68;;;6.78;;
55364;SDS011;41245;45.384;20.390;2024-01-30T11:10:57;12.95;;;7.35;;
55364;SDS011;41245;45.384;20.390;2024-01-30T11:13:30;15.55;;;6.70;;
55364;SDS011;41245;45.384;20.390;2024-01-30T11:16:05;11.48;;;6.25;;
55364;SDS011;41245;45.384;20.390;2024-01-30T11:18:32;31.40;;;7.90;;
55364;SDS011;41245;45.384;20.390;2024-01-30T11:20:59;16.95;;;6.72;;
55364;SDS011;41245;45.384;20.390;2024-01-30T11:23:27;18.15;;;6.85;;
55364;SDS011;41245;45.384;20.390;2024-01-30T11:25:53;16.42;;;9.15;;
55364;SDS011;41245;45.384;20.390;2024-01-30T11:28:22;15.45;;;8.43;;
55364;SDS011;41245;45.384;20.390;2024-01-30T11:30:48;14.25;;;7.40;;
55364;SDS011;41245;45.384;20.390;2024-01-30T11:33:16;13.15;;;7.80;;
55364;SDS011;41245;45.384;20.390;2024-01-30T11:35:56;20.67;;;7.88;;
55364;SDS011;41245;45.384;20.390;2024-01-30T11:38:24;11.20;;;5.67;;
55364;SDS011;41245;45.384;20.390;2024-01-30T11:40:52;10.57;;;6.20;;
55364;SDS011;41245;45.384;20.390;2024-01-30T11:43:19;14.50;;;6.03;;
55364;SDS011;41245;45.384;20.390;2024-01-30T11:45:45;12.43;;;6.25;;
55364;SDS011;41245;45.384;20.390;2024-01-30T11:48:12;14.13;;;7.00;;
55364;SDS011;41245;45.384;20.390;2024-01-30T11:50:38;13.25;;;6.68;;
55364;SDS011;41245;45.384;20.390;2024-01-30T11:53:05;18.25;;;7.25;;
55364;SDS011;41245;45.384;20.390;2024-01-30T11:55:31;17.42;;;6.45;;
55364;SDS011;41245;45.384;20.390;2024-01-30T11:57:58;10.85;;;6.35;;
55364;SDS011;41245;45.384;20.390;2024-01-30T12:00:23;9.90;;;5.63;;
55364;SDS011;41245;45.384;20.390;2024-01-30T12:02:52;18.98;;;7.30;;
55364;SDS011;41245;45.384;20.390;2024-01-30T12:05:23;13.70;;;6.15;;
55364;SDS011;41245;45.384;20.390;2024-01-30T12:07:49;18.27;;;7.00;;
55364;SDS011;41245;45.384;20.390;2024-01-30T12:10:15;14.88;;;7.55;;
55364;SDS011;41245;45.384;20.390;2024-01-30T12:12:41;11.73;;;6.57;;
55364;SDS011;41245;45.384;20.390;2024-01-30T12:15:10;10.55;;;6.10;;
55364;SDS011;41245;45.384;20.390;2024-01-30T12:17:37;14.40;;;7.32;;
55364;SDS011;41245;45.384;20.390;2024-01-30T12:22:38;17.77;;;7.30;;
55364;SDS011;41245;45.384;20.390;2024-01-30T12:25:07;20.27;;;7.72;;
55364;SDS011;41245;45.384;20.390;2024-01-30T12:27:37;15.45;;;7.30;;
55364;SDS011;41245;45.384;20.390;2024-01-30T12:30:06;22.35;;;8.38;;
55364;SDS011;41245;45.384;20.390;2024-01-30T12:32:36;16.40;;;8.23;;
55364;SDS011;41245;45.384;20.390;2024-01-30T12:35:07;16.27;;;8.20;;
55364;SDS011;41245;45.384;20.390;2024-01-30T12:37:35;14.25;;;8.52;;
55364;SDS011;41245;45.384;20.390;2024-01-30T12:40:01;16.77;;;7.95;;
55364;SDS011;41245;45.384;20.390;2024-01-30T12:42:27;16.05;;;8.48;;
55364;SDS011;41245;45.384;20.390;2024-01-30T12:44:53;13.68;;;6.68;;
55364;SDS011;41245;45.384;20.390;2024-01-30T12:47:21;14.00;;;7.20;;
55364;SDS011;41245;45.384;20.390;2024-01-30T12:49:47;17.23;;;8.38;;
55364;SDS011;41245;45.384;20.390;2024-01-30T12:52:13;20.17;;;8.57;;
55364;SDS011;41245;45.384;20.390;2024-01-30T12:54:41;16.17;;;8.63;;
55364;SDS011;41245;45.384;20.390;2024-01-30T12:57:07;17.75;;;11.40;;
55364;SDS011;41245;45.384;20.390;2024-01-30T12:59:32;22.73;;;9.40;;
55364;SDS011;41245;45.384;20.390;2024-01-30T13:02:00;18.33;;;9.05;;
55364;SDS011;41245;45.384;20.390;2024-01-30T13:04:27;20.05;;;9.60;;
55364;SDS011;41245;45.384;20.390;2024-01-30T13:06:53;20.83;;;8.52;;
55364;SDS011;41245;45.384;20.390;2024-01-30T13:09:19;14.68;;;7.25;;
55364;SDS011;41245;45.384;20.390;2024-01-30T13:11:45;16.65;;;8.45;;
55364;SDS011;41245;45.384;20.390;2024-01-30T13:14:11;19.25;;;9.65;;
55364;SDS011;41245;45.384;20.390;2024-01-30T13:16:36;15.95;;;8.32;;
55364;SDS011;41245;45.384;20.390;2024-01-30T13:19:02;16.08;;;7.65;;
55364;SDS011;41245;45.384;20.390;2024-01-30T13:21:28;9.98;;;5.68;;
55364;SDS011;41245;45.384;20.390;2024-01-30T13:23:54;21.13;;;8.07;;
55364;SDS011;41245;45.384;20.390;2024-01-30T13:26:20;15.82;;;7.95;;
55364;SDS011;41245;45.384;20.390;2024-01-30T13:28:47;18.55;;;8.77;;
55364;SDS011;41245;45.384;20.390;2024-01-30T13:31:14;30.17;;;13.77;;
55364;SDS011;41245;45.384;20.390;2024-01-30T13:33:40;19.90;;;9.60;;
55364;SDS011;41245;45.384;20.390;2024-01-30T13:36:10;15.20;;;7.55;;
55364;SDS011;41245;45.384;20.390;2024-01-30T13:38:36;17.73;;;8.02;;
55364;SDS011;41245;45.384;20.390;2024-01-30T13:41:02;12.30;;;6.95;;
55364;SDS011;41245;45.384;20.390;2024-01-30T13:43:28;28.23;;;11.18;;
55364;SDS011;41245;45.384;20.390;2024-01-30T13:45:54;46.20;;;17.77;;
55364;SDS011;41245;45.384;20.390;2024-01-30T13:48:20;29.60;;;15.30;;
55364;SDS011;41245;45.384;20.390;2024-01-30T13:50:46;56.65;;;23.55;;
55364;SDS011;41245;45.384;20.390;2024-01-30T13:53:12;16.90;;;9.18;;
55364;SDS011;41245;45.384;20.390;2024-01-30T13:55:38;13.02;;;6.88;;
55364;SDS011;41245;45.384;20.390;2024-01-30T13:58:04;13.13;;;7.25;;
55364;SDS011;41245;45.384;20.390;2024-01-30T14:00:33;16.88;;;6.88;;
55364;SDS011;41245;45.384;20.390;2024-01-30T14:02:59;21.77;;;7.95;;
55364;SDS011;41245;45.384;20.390;2024-01-30T14:05:25;11.57;;;6.18;;
55364;SDS011;41245;45.384;20.390;2024-01-30T14:07:52;10.88;;;5.90;;
55364;SDS011;41245;45.384;20.390;2024-01-30T14:10:18;10.57;;;5.70;;
55364;SDS011;41245;45.384;20.390;2024-01-30T14:12:44;13.07;;;6.07;;
55364;SDS011;41245;45.384;20.390;2024-01-30T14:15:12;16.08;;;6.43;;